Yichun, China
Current Conditions -  °F | °C
As of 12:00 PM on Thursday 23 Oct 2014 (Local Time) from ZGHA Reporting Station
Scattered Clouds Scattered Clouds  
Wind Chill: 77°   Ceiling: Unl
Heat Index: 78°   Visibility: 6mi
Dew Point: 52°   Wind: 4mph
Humidity: 41%   Direction: 210°SSW
Pressure: 30.09"   Gusts: NA
Location:  27.79°N, 114.37°E
Report Text: ZGHA 230400Z 21002MPS 160V290 9999 SCT040 25/11 Q1019 NOSIG
Loading
Personal Weather Stations






























Interactive Weather Map
Tropical Storm Tracking
New forecast layout! Learn more

10-Day Weather Forecast

Advertisements
Track Severe Weather on mobile